createdAt,value
2019-03-21T00:02:26.152Z,8.38
2019-03-21T00:04:58.527Z,8.37
2019-03-21T00:07:30.900Z,8.36
2019-03-21T00:10:31.937Z,8.37
2019-03-21T00:13:04.320Z,8.37
2019-03-21T00:15:52.451Z,8.37
2019-03-21T00:18:24.921Z,8.36
2019-03-21T00:20:57.410Z,8.38
2019-03-21T00:23:29.769Z,8.38
2019-03-21T00:26:02.195Z,8.33
2019-03-21T00:28:34.514Z,8.33
2019-03-21T00:31:06.444Z,8.36
2019-03-21T00:33:38.607Z,8.34
2019-03-21T00:36:10.920Z,8.35
2019-03-21T00:38:42.886Z,8.36
2019-03-21T00:41:15.259Z,8.36
2019-03-21T00:43:48.138Z,8.36
2019-03-21T00:46:20.515Z,8.35
2019-03-21T00:48:53.686Z,8.33
2019-03-21T00:51:25.972Z,8.35
2019-03-21T00:53:58.335Z,8.36
2019-03-21T00:56:30.716Z,8.38
2019-03-21T00:59:03.191Z,8.38
2019-03-21T01:01:35.564Z,8.37
2019-03-21T01:04:07.929Z,8.30
2019-03-21T01:06:39.863Z,8.31
2019-03-21T01:09:16.781Z,8.29
2019-03-21T01:11:49.152Z,8.28
2019-03-21T01:14:29.343Z,8.28
2019-03-21T01:16:55.161Z,8.25
2019-03-21T01:19:27.587Z,8.25
2019-03-21T01:22:00.987Z,8.26
2019-03-21T01:24:33.354Z,8.25
2019-03-21T01:27:05.722Z,8.24
2019-03-21T01:29:39.235Z,8.22
2019-03-21T01:32:11.162Z,8.23
2019-03-21T01:34:43.123Z,8.23
2019-03-21T01:37:15.412Z,8.28
2019-03-21T01:39:47.817Z,8.28
2019-03-21T01:42:20.164Z,8.27
2019-03-21T01:44:52.534Z,8.26
2019-03-21T01:47:24.917Z,8.26
2019-03-21T01:49:57.282Z,8.26
2019-03-21T01:52:29.653Z,8.25
2019-03-21T01:55:02.033Z,8.24
2019-03-21T01:57:34.398Z,8.25
2019-03-21T02:00:20.190Z,8.25
2019-03-21T02:02:56.243Z,8.28
2019-03-21T02:05:28.617Z,8.28
2019-03-21T02:08:00.995Z,8.29
2019-03-21T02:10:33.692Z,8.30
2019-03-21T02:13:06.042Z,8.30
2019-03-21T02:15:38.417Z,8.32
2019-03-21T02:18:10.355Z,8.27
2019-03-21T02:20:42.314Z,8.31
2019-03-21T02:23:14.598Z,8.34
2019-03-21T02:25:47.804Z,8.29
2019-03-21T02:28:20.163Z,8.27
2019-03-21T02:30:54.285Z,8.32
2019-03-21T02:33:36.066Z,8.33
2019-03-21T02:36:12.435Z,8.32
2019-03-21T02:38:44.820Z,8.30
2019-03-21T02:41:18.091Z,8.31
2019-03-21T02:43:50.126Z,8.33
2019-03-21T02:46:22.108Z,8.33
2019-03-21T02:48:54.395Z,8.38
2019-03-21T02:51:27.903Z,8.38
2019-03-21T02:54:00.276Z,8.39
2019-03-21T02:56:32.643Z,8.40
2019-03-21T02:59:05.114Z,8.39
2019-03-21T03:01:37.481Z,8.40
2019-03-21T03:04:09.859Z,8.39
2019-03-21T03:06:41.823Z,8.39
2019-03-21T03:09:14.192Z,8.42
2019-03-21T03:11:46.172Z,8.44
2019-03-21T03:14:18.630Z,8.48
2019-03-21T03:16:50.576Z,8.51
2019-03-21T03:19:22.969Z,8.51
2019-03-21T03:21:55.443Z,8.54
2019-03-21T03:24:27.514Z,8.54
2019-03-21T03:26:59.438Z,8.55
2019-03-21T03:29:31.841Z,8.55
2019-03-21T03:32:04.206Z,8.53
2019-03-21T03:34:36.598Z,8.55
2019-03-21T03:37:08.958Z,8.52
2019-03-21T03:39:40.921Z,8.50
2019-03-21T03:42:13.289Z,8.51
2019-03-21T03:44:45.710Z,8.51
2019-03-21T03:47:18.041Z,8.52
2019-03-21T03:49:50.365Z,8.55
2019-03-21T03:52:22.673Z,8.56
2019-03-21T03:54:55.045Z,8.59
2019-03-21T03:57:27.426Z,8.60
2019-03-21T03:59:59.794Z,8.60
2019-03-21T04:02:32.271Z,8.63
2019-03-21T04:05:05.040Z,8.64
2019-03-21T04:07:37.422Z,8.63
2019-03-21T04:10:24.329Z,8.65
2019-03-21T04:12:56.710Z,8.64
2019-03-21T04:15:29.079Z,8.64
2019-03-21T04:18:01.455Z,8.66
2019-03-21T04:21:05.680Z,8.65
2019-03-21T04:23:38.046Z,8.68
2019-03-21T04:26:27.299Z,8.67
2019-03-21T04:28:59.682Z,8.67
2019-03-21T04:31:32.043Z,8.68
2019-03-21T04:34:09.341Z,8.65
2019-03-21T04:36:41.311Z,8.67
2019-03-21T04:39:13.679Z,8.67
2019-03-21T04:41:47.074Z,8.65
2019-03-21T04:44:19.010Z,8.65
2019-03-21T04:46:50.970Z,8.64
2019-03-21T04:49:22.908Z,8.65
2019-03-21T04:51:55.332Z,8.65
2019-03-21T04:54:27.708Z,8.64
2019-03-21T04:59:48.260Z,8.65
2019-03-21T05:02:20.633Z,8.63
2019-03-21T05:04:53.002Z,8.63
2019-03-21T05:07:25.374Z,8.63
2019-03-21T05:09:57.749Z,8.61
2019-03-21T05:12:30.123Z,8.60
2019-03-21T05:15:02.491Z,8.58
2019-03-21T05:17:35.474Z,8.61
2019-03-21T05:20:14.367Z,8.59
2019-03-21T05:22:46.575Z,8.62
2019-03-21T05:25:18.935Z,8.63
2019-03-21T05:27:51.262Z,8.63
2019-03-21T05:30:34.132Z,8.65
2019-03-21T05:33:06.503Z,8.69
2019-03-21T05:35:38.879Z,8.73
2019-03-21T05:38:13.504Z,8.74
2019-03-21T05:40:45.868Z,8.81
2019-03-21T05:43:25.785Z,8.85
2019-03-21T05:45:57.981Z,8.89
2019-03-21T05:48:31.384Z,8.96
2019-03-21T05:51:03.757Z,8.95
2019-03-21T05:53:36.126Z,8.94
2019-03-21T05:56:09.115Z,9.01
2019-03-21T05:58:41.483Z,9.01
2019-03-21T06:01:14.954Z,9.01
2019-03-21T06:03:52.784Z,9.05
2019-03-21T06:06:49.051Z,9.05
2019-03-21T06:09:24.663Z,9.04
2019-03-21T06:12:01.170Z,9.14
2019-03-21T06:14:42.313Z,9.20
2019-03-21T06:17:14.683Z,9.18
2019-03-21T06:19:54.833Z,9.21
2019-03-21T06:22:55.424Z,9.22
2019-03-21T06:25:57.332Z,9.33
2019-03-21T06:28:29.704Z,9.48
2019-03-21T06:31:02.383Z,9.58
2019-03-21T06:33:34.858Z,9.69
2019-03-21T06:36:06.796Z,9.79
2019-03-21T06:38:39.193Z,9.93
2019-03-21T06:41:11.461Z,10.02
2019-03-21T06:43:43.463Z,9.98
2019-03-21T06:46:15.400Z,10.01
2019-03-21T06:48:47.757Z,10.09
2019-03-21T06:51:20.132Z,10.15
2019-03-21T06:53:52.504Z,10.37
2019-03-21T06:56:24.881Z,10.32
2019-03-21T06:58:57.253Z,10.40
2019-03-21T07:01:29.186Z,10.40
2019-03-21T07:04:07.116Z,10.46
2019-03-21T07:06:35.141Z,10.75
2019-03-21T07:09:09.603Z,10.88
2019-03-21T07:11:41.977Z,10.88
2019-03-21T07:14:14.357Z,10.97
2019-03-21T07:16:46.965Z,11.03
2019-03-21T07:19:19.499Z,11.07
2019-03-21T07:21:51.874Z,11.18
2019-03-21T07:24:24.242Z,11.05
2019-03-21T07:26:56.518Z,11.02
2019-03-21T07:29:30.118Z,10.79
2019-03-21T07:32:02.542Z,10.96
2019-03-21T07:34:34.959Z,11.17
2019-03-21T07:37:07.342Z,11.05
2019-03-21T07:39:39.332Z,11.08
2019-03-21T07:42:11.666Z,11.26
2019-03-21T07:44:44.040Z,11.16
2019-03-21T07:47:15.982Z,11.24
2019-03-21T07:49:48.380Z,11.16
2019-03-21T07:52:20.744Z,11.30
2019-03-21T07:54:53.122Z,11.18
2019-03-21T07:57:25.489Z,11.33
2019-03-21T07:59:59.301Z,11.37
2019-03-21T08:02:31.668Z,11.56
2019-03-21T08:05:04.551Z,11.39
2019-03-21T08:07:37.024Z,11.42
2019-03-21T08:10:14.929Z,11.38
2019-03-21T08:12:47.460Z,11.55
2019-03-21T08:15:19.982Z,11.79
2019-03-21T08:17:52.352Z,11.65
2019-03-21T08:20:24.718Z,11.46
2019-03-21T08:22:57.091Z,11.42
2019-03-21T08:25:29.469Z,11.44
2019-03-21T08:28:01.837Z,11.78
2019-03-21T08:30:35.949Z,11.81
2019-03-21T08:33:08.326Z,12.01
2019-03-21T08:35:40.697Z,12.07
2019-03-21T08:38:13.064Z,12.06
2019-03-21T08:40:45.447Z,12.06
2019-03-21T08:43:17.807Z,12.29
2019-03-21T08:45:50.186Z,12.58
2019-03-21T08:48:22.550Z,12.56
2019-03-21T08:50:54.925Z,12.68
2019-03-21T08:53:27.296Z,12.51
2019-03-21T08:55:59.302Z,12.64
2019-03-21T08:58:31.633Z,12.40
2019-03-21T09:01:04.002Z,12.53
2019-03-21T09:03:36.378Z,12.72
2019-03-21T09:06:09.736Z,12.51
2019-03-21T09:08:42.039Z,12.31
2019-03-21T09:11:14.413Z,12.52
2019-03-21T09:13:46.346Z,12.79
2019-03-21T09:16:18.754Z,12.83
2019-03-21T09:18:51.123Z,13.24
2019-03-21T09:21:24.010Z,13.22
2019-03-21T09:23:56.381Z,13.74
2019-03-21T09:26:28.847Z,13.52
2019-03-21T09:29:01.221Z,13.48
2019-03-21T09:31:33.604Z,13.06
2019-03-21T09:34:05.529Z,13.23
2019-03-21T09:36:37.927Z,13.30
2019-03-21T09:39:10.299Z,13.32
2019-03-21T09:41:42.307Z,12.99
2019-03-21T09:44:30.612Z,12.95
2019-03-21T09:47:02.978Z,13.08
2019-03-21T09:49:35.350Z,13.05
2019-03-21T09:52:07.342Z,12.92
2019-03-21T09:54:39.500Z,13.10
2019-03-21T09:57:11.959Z,13.21
2019-03-21T09:59:44.326Z,13.35
2019-03-21T10:02:16.701Z,13.46
2019-03-21T10:04:49.070Z,14.21
2019-03-21T10:07:21.442Z,14.71
2019-03-21T10:09:53.817Z,13.99
2019-03-21T10:12:26.248Z,13.83
2019-03-21T10:14:58.560Z,14.10
2019-03-21T10:17:30.929Z,14.16
2019-03-21T10:20:03.305Z,14.32
2019-03-21T10:22:36.083Z,13.83
2019-03-21T10:25:08.461Z,13.79
2019-03-21T10:27:41.444Z,13.54
2019-03-21T10:30:16.583Z,13.63
2019-03-21T10:32:48.950Z,13.69
2019-03-21T10:35:20.892Z,13.87
2019-03-21T10:37:53.295Z,13.73
2019-03-21T10:40:25.658Z,13.63
2019-03-21T10:42:57.682Z,13.42
2019-03-21T10:45:29.993Z,13.45
2019-03-21T10:48:02.378Z,13.65
2019-03-21T10:50:38.251Z,14.03
2019-03-21T10:53:11.100Z,14.13
2019-03-21T10:55:43.473Z,14.24
2019-03-21T10:58:15.850Z,14.21
2019-03-21T11:00:48.216Z,14.31
2019-03-21T11:03:20.800Z,14.60
2019-03-21T11:05:53.165Z,14.57
2019-03-21T11:08:25.540Z,14.80
2019-03-21T11:10:57.911Z,14.89
2019-03-21T11:13:29.899Z,14.66
2019-03-21T11:16:02.243Z,14.43
2019-03-21T11:18:36.281Z,15.14
2019-03-21T11:21:08.319Z,15.94
2019-03-21T11:23:40.982Z,16.03
2019-03-21T11:26:14.956Z,15.55
2019-03-21T11:28:49.021Z,15.08
2019-03-21T11:31:21.390Z,15.10
2019-03-21T11:33:53.761Z,15.41
2019-03-21T11:36:37.689Z,15.73
2019-03-21T11:39:01.479Z,15.76
2019-03-21T11:41:35.618Z,15.60
2019-03-21T11:44:08.582Z,15.57
2019-03-21T11:46:40.943Z,15.41
2019-03-21T11:49:13.364Z,14.93
2019-03-21T11:51:45.704Z,15.10
2019-03-21T11:54:17.705Z,15.04
2019-03-21T11:56:50.028Z,14.78
2019-03-21T11:59:22.025Z,14.71
2019-03-21T12:01:54.295Z,14.81
2019-03-21T12:04:26.631Z,14.50
2019-03-21T12:06:59.001Z,14.52
2019-03-21T12:09:31.485Z,15.11
2019-03-21T12:12:04.769Z,15.32
2019-03-21T12:14:37.148Z,15.67
2019-03-21T12:17:09.518Z,15.71
2019-03-21T12:19:41.889Z,16.48
2019-03-21T12:22:13.919Z,16.08
2019-03-21T12:24:46.834Z,15.21
2019-03-21T12:27:19.206Z,14.60
2019-03-21T12:29:51.577Z,14.20
2019-03-21T12:32:23.517Z,14.20
2019-03-21T12:34:55.911Z,14.25
2019-03-21T12:37:28.288Z,14.03
2019-03-21T12:40:00.336Z,14.00
2019-03-21T12:42:32.720Z,14.01
2019-03-21T12:45:10.930Z,13.99
2019-03-21T12:47:42.862Z,13.80
2019-03-21T12:50:15.273Z,13.85
2019-03-21T12:52:47.642Z,13.94
2019-03-21T12:55:20.022Z,13.73
2019-03-21T12:57:51.954Z,13.62
2019-03-21T13:00:37.452Z,13.64
2019-03-21T13:03:10.946Z,13.60
2019-03-21T13:05:44.755Z,13.63
2019-03-21T13:08:16.692Z,13.71
2019-03-21T13:10:49.089Z,13.57
2019-03-21T13:13:21.022Z,13.57
2019-03-21T13:15:53.478Z,13.39
2019-03-21T13:18:25.795Z,13.52
2019-03-21T13:20:58.224Z,13.53
2019-03-21T13:23:30.711Z,13.56
2019-03-21T13:26:03.383Z,13.35
2019-03-21T13:28:35.546Z,13.31
2019-03-21T13:31:08.099Z,13.36
2019-03-21T13:33:40.742Z,13.29
2019-03-21T13:36:13.175Z,13.23
2019-03-21T13:38:45.493Z,13.21
2019-03-21T13:41:17.859Z,13.18
2019-03-21T13:43:50.251Z,13.33
2019-03-21T13:46:23.833Z,13.38
2019-03-21T13:48:56.203Z,13.39
2019-03-21T13:51:28.578Z,13.45
2019-03-21T13:54:00.952Z,13.31
2019-03-21T13:56:37.978Z,13.34
2019-03-21T13:59:07.032Z,13.38
2019-03-21T14:01:39.497Z,13.17
2019-03-21T14:04:11.873Z,13.29
2019-03-21T14:06:44.813Z,13.33
2019-03-21T14:09:20.306Z,13.54
2019-03-21T14:11:52.158Z,13.42
2019-03-21T14:14:24.104Z,13.33
2019-03-21T14:16:56.494Z,13.32
2019-03-21T14:19:28.871Z,13.23
2019-03-21T14:22:01.295Z,13.18
2019-03-21T14:24:33.611Z,13.23
2019-03-21T14:27:06.495Z,13.16
2019-03-21T14:29:38.860Z,13.09
2019-03-21T14:32:11.295Z,13.03
2019-03-21T14:34:43.613Z,13.07
2019-03-21T14:37:15.984Z,13.01
2019-03-21T14:39:47.917Z,13.14
2019-03-21T14:42:20.317Z,12.90
2019-03-21T14:44:52.251Z,12.82
2019-03-21T14:47:35.637Z,12.81
2019-03-21T14:49:58.664Z,12.81
2019-03-21T14:52:31.035Z,12.68
2019-03-21T14:55:03.409Z,12.67
2019-03-21T14:57:35.409Z,12.72
2019-03-21T15:00:14.300Z,12.76
2019-03-21T15:02:46.669Z,12.75
2019-03-21T15:05:18.853Z,12.78
2019-03-21T15:07:51.923Z,12.62
2019-03-21T15:10:24.297Z,12.62
2019-03-21T15:12:56.770Z,12.60
2019-03-21T15:15:29.139Z,12.60
2019-03-21T15:18:01.510Z,12.62
2019-03-21T15:20:33.884Z,12.49
2019-03-21T15:23:06.255Z,12.43
2019-03-21T15:25:38.259Z,12.48
2019-03-21T15:28:10.997Z,12.41
2019-03-21T15:30:43.370Z,12.37
2019-03-21T15:33:15.745Z,12.35
2019-03-21T15:35:48.113Z,12.41
2019-03-21T15:38:20.487Z,12.31
2019-03-21T15:40:52.870Z,12.29
2019-03-21T15:43:25.230Z,12.31
2019-03-21T15:45:57.601Z,12.31
2019-03-21T15:48:29.631Z,12.24
2019-03-21T15:51:04.829Z,12.23
2019-03-21T15:53:35.948Z,12.26
2019-03-21T15:56:08.318Z,12.21
2019-03-21T15:58:40.319Z,12.22
2019-03-21T16:01:12.653Z,12.19
2019-03-21T16:03:45.027Z,12.18
2019-03-21T16:06:17.401Z,12.18
2019-03-21T16:08:49.818Z,12.15
2019-03-21T16:11:22.142Z,12.14
2019-03-21T16:13:54.520Z,12.12
2019-03-21T16:16:26.880Z,12.11
2019-03-21T16:18:59.258Z,12.09
2019-03-21T16:21:31.629Z,11.97
2019-03-21T16:24:05.387Z,11.96
2019-03-21T16:26:38.012Z,11.93
2019-03-21T16:29:10.691Z,11.89
2019-03-21T16:31:42.628Z,11.87
2019-03-21T16:34:15.030Z,11.86
2019-03-21T16:36:47.404Z,11.84
2019-03-21T16:39:19.773Z,11.83
2019-03-21T16:41:52.141Z,11.83
2019-03-21T16:44:24.513Z,11.79
2019-03-21T16:46:57.000Z,11.73
2019-03-21T16:49:29.359Z,11.71
2019-03-21T16:52:01.732Z,11.69
2019-03-21T16:54:34.103Z,11.66
2019-03-21T16:57:06.474Z,11.64
2019-03-21T16:59:39.883Z,11.61
2019-03-21T17:02:13.585Z,11.58
2019-03-21T17:04:45.950Z,11.57
2019-03-21T17:07:18.466Z,11.53
2019-03-21T17:09:51.416Z,11.53
2019-03-21T17:12:23.778Z,11.51
2019-03-21T17:14:56.151Z,11.51
2019-03-21T17:17:28.087Z,11.50
2019-03-21T17:20:01.501Z,11.45
2019-03-21T17:22:34.150Z,11.46
2019-03-21T17:25:08.935Z,11.44
2019-03-21T17:27:41.302Z,11.41
2019-03-21T17:30:18.882Z,11.41
2019-03-21T17:32:51.254Z,11.40
2019-03-21T17:35:23.628Z,11.38
2019-03-21T17:37:55.998Z,11.39
2019-03-21T17:40:29.904Z,11.37
2019-03-21T17:43:01.905Z,11.38
2019-03-21T17:45:34.459Z,11.37
2019-03-21T17:48:06.822Z,11.33
2019-03-21T17:50:39.189Z,11.33
2019-03-21T17:53:11.560Z,11.35
2019-03-21T17:55:44.035Z,11.33
2019-03-21T17:58:16.407Z,11.31
2019-03-21T18:00:48.497Z,11.29
2019-03-21T18:03:20.663Z,11.29
2019-03-21T18:05:53.116Z,11.23
2019-03-21T18:08:25.496Z,11.20
2019-03-21T18:10:58.987Z,11.19
2019-03-21T18:13:31.410Z,11.20
2019-03-21T18:16:03.936Z,11.21
2019-03-21T18:18:43.283Z,11.20
2019-03-21T18:21:25.990Z,11.19
2019-03-21T18:24:03.477Z,11.17
2019-03-21T18:26:37.740Z,11.17
2019-03-21T18:29:10.569Z,11.18
2019-03-21T18:31:43.662Z,11.17
2019-03-21T18:34:17.592Z,11.16
2019-03-21T18:36:50.718Z,11.12
2019-03-21T18:39:24.216Z,11.16
2019-03-21T18:41:57.813Z,11.15
2019-03-21T18:44:31.303Z,11.16
2019-03-21T18:47:04.147Z,11.16
2019-03-21T18:49:36.532Z,11.08
2019-03-21T18:52:08.885Z,11.05
2019-03-21T18:54:41.256Z,11.01
2019-03-21T18:57:14.325Z,11.02
2019-03-21T18:59:47.007Z,11.01
2019-03-21T19:02:19.402Z,11.01
2019-03-21T19:04:51.759Z,10.98
2019-03-21T19:07:24.142Z,10.93
2019-03-21T19:09:56.511Z,10.93
2019-03-21T19:12:29.605Z,10.89
2019-03-21T19:15:02.896Z,10.87
2019-03-21T19:17:35.269Z,10.86
2019-03-21T19:20:10.961Z,10.91
2019-03-21T19:22:43.389Z,10.89
2019-03-21T19:25:19.000Z,10.86
2019-03-21T19:27:49.577Z,10.80
2019-03-21T19:30:22.407Z,10.81
2019-03-21T19:32:55.549Z,10.79
2019-03-21T19:35:27.911Z,10.79
2019-03-21T19:37:59.902Z,10.83
2019-03-21T19:40:32.247Z,10.83
2019-03-21T19:43:05.847Z,10.82
2019-03-21T19:45:38.224Z,10.83
2019-03-21T19:48:10.599Z,10.80
2019-03-21T19:50:42.987Z,10.80
2019-03-21T19:53:16.182Z,10.74
2019-03-21T19:55:48.531Z,10.76
2019-03-21T19:58:20.975Z,10.76
2019-03-21T20:00:53.395Z,10.73
2019-03-21T20:03:25.754Z,10.71
2019-03-21T20:06:00.408Z,10.67
2019-03-21T20:08:33.833Z,10.62
2019-03-21T20:11:06.742Z,10.63
2019-03-21T20:13:39.849Z,10.63
2019-03-21T20:16:12.768Z,10.62
2019-03-21T20:18:45.636Z,10.61
2019-03-21T20:21:18.483Z,10.63
2019-03-21T20:23:51.536Z,10.64
2019-03-21T20:26:24.933Z,10.62
2019-03-21T20:28:58.159Z,10.64
2019-03-21T20:31:30.974Z,10.60
2019-03-21T20:34:07.146Z,10.59
2019-03-21T20:36:41.627Z,10.58
2019-03-21T20:39:14.824Z,10.57
2019-03-21T20:41:46.829Z,10.57
2019-03-21T20:44:27.371Z,10.57
2019-03-21T20:47:01.975Z,10.59
2019-03-21T20:49:35.094Z,10.60
2019-03-21T20:52:09.284Z,10.59
2019-03-21T20:54:43.500Z,10.59
2019-03-21T20:57:15.866Z,10.58
2019-03-21T20:59:49.299Z,10.57
2019-03-21T21:02:22.146Z,10.58
2019-03-21T21:04:55.838Z,10.61
2019-03-21T21:07:39.387Z,10.59
2019-03-21T21:10:16.199Z,10.58
2019-03-21T21:12:51.870Z,10.58
2019-03-21T21:15:26.003Z,10.57
2019-03-21T21:17:58.400Z,10.57
2019-03-21T21:20:30.870Z,10.57
2019-03-21T21:23:03.653Z,10.56
2019-03-21T21:25:36.027Z,10.57
2019-03-21T21:28:08.495Z,10.57
2019-03-21T21:30:40.922Z,10.54
2019-03-21T21:33:12.854Z,10.52
2019-03-21T21:35:45.616Z,10.54
2019-03-21T21:38:17.986Z,10.54
2019-03-21T21:40:50.357Z,10.51
2019-03-21T21:43:22.625Z,10.52
2019-03-21T21:45:54.996Z,10.48
2019-03-21T21:48:27.268Z,10.48
2019-03-21T21:50:59.638Z,10.47
2019-03-21T21:53:31.897Z,10.50
2019-03-21T21:56:04.280Z,10.47
2019-03-21T21:58:36.434Z,10.46
2019-03-21T22:01:08.818Z,10.45
2019-03-21T22:03:41.190Z,10.42
2019-03-21T22:06:13.570Z,10.41
2019-03-21T22:08:45.998Z,10.40
2019-03-21T22:11:18.311Z,10.39
2019-03-21T22:13:50.678Z,10.37
2019-03-21T22:16:23.058Z,10.37
2019-03-21T22:18:55.421Z,10.35
2019-03-21T22:21:27.793Z,10.35
2019-03-21T22:24:00.069Z,10.34
2019-03-21T22:26:32.439Z,10.31
2019-03-21T22:29:04.808Z,10.32
2019-03-21T22:31:37.179Z,10.27
2019-03-21T22:34:09.552Z,10.22
2019-03-21T22:36:49.394Z,10.19
2019-03-21T22:39:16.446Z,10.18
2019-03-21T22:41:48.819Z,10.20
2019-03-21T22:44:21.193Z,10.19
2019-03-21T22:46:53.561Z,10.20
2019-03-21T22:49:25.933Z,10.22
2019-03-21T22:51:58.304Z,10.23
2019-03-21T22:54:30.238Z,10.25
2019-03-21T22:57:02.644Z,10.26
2019-03-21T22:59:35.012Z,10.28
2019-03-21T23:02:07.383Z,10.26
2019-03-21T23:04:39.756Z,10.28
2019-03-21T23:07:12.132Z,10.28
2019-03-21T23:09:44.285Z,10.25
2019-03-21T23:12:16.774Z,10.24
2019-03-21T23:14:48.726Z,10.22
2019-03-21T23:17:22.639Z,10.19
2019-03-21T23:19:55.012Z,10.17
2019-03-21T23:22:27.384Z,10.11
2019-03-21T23:24:59.756Z,10.09
2019-03-21T23:27:33.257Z,10.08
2019-03-21T23:30:12.532Z,10.05
2019-03-21T23:32:45.784Z,10.07
2019-03-21T23:35:17.714Z,10.06
2019-03-21T23:37:51.756Z,9.97
2019-03-21T23:40:24.126Z,9.88
2019-03-21T23:42:56.500Z,9.74
2019-03-21T23:45:28.872Z,9.61
2019-03-21T23:48:01.339Z,9.54
2019-03-21T23:50:33.714Z,9.44
2019-03-21T23:53:06.598Z,9.34
2019-03-21T23:55:39.077Z,9.25
2019-03-21T23:58:11.549Z,9.22
